sensor_id;sensor_type;location;lat;lon;timestamp;temperature;humidity
11934;DHT22;6026;48.784;9.198;2022-09-27T00:00:42;9.30;99.90
11934;DHT22;6026;48.784;9.198;2022-09-27T00:03:08;9.30;99.90
11934;DHT22;6026;48.784;9.198;2022-09-27T00:05:34;9.40;99.90
11934;DHT22;6026;48.784;9.198;2022-09-27T00:08:00;9.30;99.90
11934;DHT22;6026;48.784;9.198;2022-09-27T00:10:26;9.40;99.90
11934;DHT22;6026;48.784;9.198;2022-09-27T00:12:51;9.40;99.90
11934;DHT22;6026;48.784;9.198;2022-09-27T00:15:17;9.30;99.90
11934;DHT22;6026;48.784;9.198;2022-09-27T00:17:43;9.40;99.90
11934;DHT22;6026;48.784;9.198;2022-09-27T00:20:09;9.40;99.90
11934;DHT22;6026;48.784;9.198;2022-09-27T00:22:35;9.40;99.90
11934;DHT22;6026;48.784;9.198;2022-09-27T00:25:01;9.40;99.90
11934;DHT22;6026;48.784;9.198;2022-09-27T00:27:30;9.30;99.90
11934;DHT22;6026;48.784;9.198;2022-09-27T00:29:55;9.40;99.90
11934;DHT22;6026;48.784;9.198;2022-09-27T00:32:21;9.40;99.90
11934;DHT22;6026;48.784;9.198;2022-09-27T00:34:47;9.40;99.90
11934;DHT22;6026;48.784;9.198;2022-09-27T00:37:12;9.40;99.90
11934;DHT22;6026;48.784;9.198;2022-09-27T00:39:38;9.40;99.90
11934;DHT22;6026;48.784;9.198;2022-09-27T00:42:05;9.40;99.90
11934;DHT22;6026;48.784;9.198;2022-09-27T00:47:21;9.40;99.90
11934;DHT22;6026;48.784;9.198;2022-09-27T00:49:56;9.40;99.90
11934;DHT22;6026;48.784;9.198;2022-09-27T00:52:28;9.40;99.90
11934;DHT22;6026;48.784;9.198;2022-09-27T00:55:03;9.40;99.90
11934;DHT22;6026;48.784;9.198;2022-09-27T00:57:31;9.40;99.90
11934;DHT22;6026;48.784;9.198;2022-09-27T01:00:08;9.50;99.90
11934;DHT22;6026;48.784;9.198;2022-09-27T01:02:39;9.50;99.90
11934;DHT22;6026;48.784;9.198;2022-09-27T01:05:07;9.50;99.90
11934;DHT22;6026;48.784;9.198;2022-09-27T01:07:34;9.50;99.90
11934;DHT22;6026;48.784;9.198;2022-09-27T01:10:00;9.50;99.90
11934;DHT22;6026;48.784;9.198;2022-09-27T01:15:30;9.50;99.90
11934;DHT22;6026;48.784;9.198;2022-09-27T01:20:41;9.50;99.90
11934;DHT22;6026;48.784;9.198;2022-09-27T01:23:33;9.50;99.90
11934;DHT22;6026;48.784;9.198;2022-09-27T01:32:34;9.60;99.90
11934;DHT22;6026;48.784;9.198;2022-09-27T01:35:06;9.60;99.90
11934;DHT22;6026;48.784;9.198;2022-09-27T01:37:42;9.60;99.90
11934;DHT22;6026;48.784;9.198;2022-09-27T01:40:17;9.60;99.90
11934;DHT22;6026;48.784;9.198;2022-09-27T01:45:41;9.60;99.90
11934;DHT22;6026;48.784;9.198;2022-09-27T01:48:19;9.60;99.90
11934;DHT22;6026;48.784;9.198;2022-09-27T01:51:01;9.50;99.90
11934;DHT22;6026;48.784;9.198;2022-09-27T01:53:44;9.60;99.90
11934;DHT22;6026;48.784;9.198;2022-09-27T01:56:20;9.60;99.90
11934;DHT22;6026;48.784;9.198;2022-09-27T01:59:05;9.60;99.90
11934;DHT22;6026;48.784;9.198;2022-09-27T02:01:34;9.60;99.90
11934;DHT22;6026;48.784;9.198;2022-09-27T02:04:02;9.60;99.90
11934;DHT22;6026;48.784;9.198;2022-09-27T02:06:41;9.60;99.90
11934;DHT22;6026;48.784;9.198;2022-09-27T02:09:15;9.60;99.90
11934;DHT22;6026;48.784;9.198;2022-09-27T02:11:47;9.60;99.90
11934;DHT22;6026;48.784;9.198;2022-09-27T02:16:59;9.70;99.90
11934;DHT22;6026;48.784;9.198;2022-09-27T02:25:22;9.70;99.90
11934;DHT22;6026;48.784;9.198;2022-09-27T02:30:37;9.70;99.90
11934;DHT22;6026;48.784;9.198;2022-09-27T02:33:03;9.70;99.90
11934;DHT22;6026;48.784;9.198;2022-09-27T02:35:31;9.70;99.90
11934;DHT22;6026;48.784;9.198;2022-09-27T02:37:57;9.70;99.90
11934;DHT22;6026;48.784;9.198;2022-09-27T02:40:25;9.70;99.90
11934;DHT22;6026;48.784;9.198;2022-09-27T02:42:54;9.60;99.90
11934;DHT22;6026;48.784;9.198;2022-09-27T02:45:20;9.60;99.90
11934;DHT22;6026;48.784;9.198;2022-09-27T02:53:19;9.50;99.90
11934;DHT22;6026;48.784;9.198;2022-09-27T03:03:44;9.20;99.90
11934;DHT22;6026;48.784;9.198;2022-09-27T03:06:13;9.10;99.90
11934;DHT22;6026;48.784;9.198;2022-09-27T03:08:40;9.10;99.90
11934;DHT22;6026;48.784;9.198;2022-09-27T03:11:07;9.00;99.90
11934;DHT22;6026;48.784;9.198;2022-09-27T03:13:33;9.00;99.90
11934;DHT22;6026;48.784;9.198;2022-09-27T03:16:01;8.90;99.90
11934;DHT22;6026;48.784;9.198;2022-09-27T03:18:26;8.90;99.90
11934;DHT22;6026;48.784;9.198;2022-09-27T03:20:52;9.00;99.90
11934;DHT22;6026;48.784;9.198;2022-09-27T03:23:19;8.80;99.90
11934;DHT22;6026;48.784;9.198;2022-09-27T03:25:44;8.80;99.90
11934;DHT22;6026;48.784;9.198;2022-09-27T03:28:11;8.80;99.90
11934;DHT22;6026;48.784;9.198;2022-09-27T03:30:36;8.80;99.90
11934;DHT22;6026;48.784;9.198;2022-09-27T03:33:02;8.80;99.90
11934;DHT22;6026;48.784;9.198;2022-09-27T03:35:28;8.80;99.90
11934;DHT22;6026;48.784;9.198;2022-09-27T03:37:54;8.80;99.90
11934;DHT22;6026;48.784;9.198;2022-09-27T03:40:20;8.80;99.90
11934;DHT22;6026;48.784;9.198;2022-09-27T03:42:45;8.80;99.90
11934;DHT22;6026;48.784;9.198;2022-09-27T03:45:11;8.80;99.90
11934;DHT22;6026;48.784;9.198;2022-09-27T03:47:41;8.80;99.90
11934;DHT22;6026;48.784;9.198;2022-09-27T03:50:08;8.80;99.90
11934;DHT22;6026;48.784;9.198;2022-09-27T03:52:34;8.80;99.90
11934;DHT22;6026;48.784;9.198;2022-09-27T03:55:00;8.80;99.90
11934;DHT22;6026;48.784;9.198;2022-09-27T03:57:26;8.80;99.90
11934;DHT22;6026;48.784;9.198;2022-09-27T03:59:51;8.80;99.90
11934;DHT22;6026;48.784;9.198;2022-09-27T04:02:17;8.80;99.90
11934;DHT22;6026;48.784;9.198;2022-09-27T04:04:42;8.80;99.90
11934;DHT22;6026;48.784;9.198;2022-09-27T04:07:08;8.90;99.90
11934;DHT22;6026;48.784;9.198;2022-09-27T04:09:35;8.90;99.90
11934;DHT22;6026;48.784;9.198;2022-09-27T04:12:02;8.90;99.90
11934;DHT22;6026;48.784;9.198;2022-09-27T04:14:28;8.90;99.90
11934;DHT22;6026;48.784;9.198;2022-09-27T04:16:54;8.90;99.90
11934;DHT22;6026;48.784;9.198;2022-09-27T04:19:20;9.00;99.90
11934;DHT22;6026;48.784;9.198;2022-09-27T04:21:45;8.90;99.90
11934;DHT22;6026;48.784;9.198;2022-09-27T04:24:11;8.90;99.90
11934;DHT22;6026;48.784;9.198;2022-09-27T04:26:37;9.00;99.90
11934;DHT22;6026;48.784;9.198;2022-09-27T04:29:04;9.00;99.90
11934;DHT22;6026;48.784;9.198;2022-09-27T04:31:30;9.00;99.90
11934;DHT22;6026;48.784;9.198;2022-09-27T04:33:56;9.00;99.90
11934;DHT22;6026;48.784;9.198;2022-09-27T04:36:24;9.00;99.90
11934;DHT22;6026;48.784;9.198;2022-09-27T04:38:54;9.10;99.90
11934;DHT22;6026;48.784;9.198;2022-09-27T04:41:21;9.10;99.90
11934;DHT22;6026;48.784;9.198;2022-09-27T04:43:48;9.00;99.90
11934;DHT22;6026;48.784;9.198;2022-09-27T04:46:14;9.10;99.90
11934;DHT22;6026;48.784;9.198;2022-09-27T04:48:40;9.10;99.90
11934;DHT22;6026;48.784;9.198;2022-09-27T04:51:06;9.10;99.90
11934;DHT22;6026;48.784;9.198;2022-09-27T04:53:32;9.10;99.90
11934;DHT22;6026;48.784;9.198;2022-09-27T04:55:58;9.10;99.90
11934;DHT22;6026;48.784;9.198;2022-09-27T04:58:24;9.10;99.90
11934;DHT22;6026;48.784;9.198;2022-09-27T05:00:50;9.10;99.90
11934;DHT22;6026;48.784;9.198;2022-09-27T05:03:17;9.10;99.90
11934;DHT22;6026;48.784;9.198;2022-09-27T05:05:43;9.10;99.90
11934;DHT22;6026;48.784;9.198;2022-09-27T05:08:09;9.10;99.90
11934;DHT22;6026;48.784;9.198;2022-09-27T05:10:35;9.10;99.90
11934;DHT22;6026;48.784;9.198;2022-09-27T05:13:00;9.20;99.90
11934;DHT22;6026;48.784;9.198;2022-09-27T05:15:26;9.20;99.90
11934;DHT22;6026;48.784;9.198;2022-09-27T05:17:52;9.20;99.90
11934;DHT22;6026;48.784;9.198;2022-09-27T05:20:18;9.10;99.90
11934;DHT22;6026;48.784;9.198;2022-09-27T05:22:45;9.10;99.90
11934;DHT22;6026;48.784;9.198;2022-09-27T05:25:14;9.00;99.90
11934;DHT22;6026;48.784;9.198;2022-09-27T05:27:39;9.10;99.90
11934;DHT22;6026;48.784;9.198;2022-09-27T05:30:05;9.10;99.90
11934;DHT22;6026;48.784;9.198;2022-09-27T05:32:33;9.10;99.90
11934;DHT22;6026;48.784;9.198;2022-09-27T05:34:59;9.10;99.90
11934;DHT22;6026;48.784;9.198;2022-09-27T05:37:25;9.10;99.90
11934;DHT22;6026;48.784;9.198;2022-09-27T05:39:50;9.00;99.90
11934;DHT22;6026;48.784;9.198;2022-09-27T05:42:16;9.00;99.90
11934;DHT22;6026;48.784;9.198;2022-09-27T05:44:43;9.10;99.90
11934;DHT22;6026;48.784;9.198;2022-09-27T05:47:13;9.10;99.90
11934;DHT22;6026;48.784;9.198;2022-09-27T05:49:40;9.10;99.90
11934;DHT22;6026;48.784;9.198;2022-09-27T05:52:06;9.10;99.90
11934;DHT22;6026;48.784;9.198;2022-09-27T05:54:32;9.10;99.90
11934;DHT22;6026;48.784;9.198;2022-09-27T05:56:58;9.10;99.90
11934;DHT22;6026;48.784;9.198;2022-09-27T05:59:26;9.20;99.90
11934;DHT22;6026;48.784;9.198;2022-09-27T06:01:52;9.20;99.90
11934;DHT22;6026;48.784;9.198;2022-09-27T06:04:18;9.20;99.90
11934;DHT22;6026;48.784;9.198;2022-09-27T06:06:44;9.20;99.90
11934;DHT22;6026;48.784;9.198;2022-09-27T06:09:11;9.20;99.90
11934;DHT22;6026;48.784;9.198;2022-09-27T06:11:36;9.20;99.90
11934;DHT22;6026;48.784;9.198;2022-09-27T06:14:02;9.20;99.90
11934;DHT22;6026;48.784;9.198;2022-09-27T06:16:29;9.20;99.90
11934;DHT22;6026;48.784;9.198;2022-09-27T06:18:55;9.20;99.90
11934;DHT22;6026;48.784;9.198;2022-09-27T06:21:21;9.20;99.90
11934;DHT22;6026;48.784;9.198;2022-09-27T06:23:47;9.20;99.90
11934;DHT22;6026;48.784;9.198;2022-09-27T06:26:12;9.30;99.90
11934;DHT22;6026;48.784;9.198;2022-09-27T06:28:38;9.20;99.90
11934;DHT22;6026;48.784;9.198;2022-09-27T06:31:05;9.30;99.90
11934;DHT22;6026;48.784;9.198;2022-09-27T06:33:33;9.30;99.90
11934;DHT22;6026;48.784;9.198;2022-09-27T06:36:03;9.30;99.90
11934;DHT22;6026;48.784;9.198;2022-09-27T06:38:29;9.40;99.90
11934;DHT22;6026;48.784;9.198;2022-09-27T06:40:55;9.40;99.90
11934;DHT22;6026;48.784;9.198;2022-09-27T06:43:22;9.50;99.90
11934;DHT22;6026;48.784;9.198;2022-09-27T06:45:48;9.50;99.90
11934;DHT22;6026;48.784;9.198;2022-09-27T06:48:15;9.60;99.90
11934;DHT22;6026;48.784;9.198;2022-09-27T06:50:42;9.60;99.90
11934;DHT22;6026;48.784;9.198;2022-09-27T06:53:10;9.60;99.90
11934;DHT22;6026;48.784;9.198;2022-09-27T06:55:40;9.60;99.90
11934;DHT22;6026;48.784;9.198;2022-09-27T06:58:06;9.60;99.90
11934;DHT22;6026;48.784;9.198;2022-09-27T07:00:51;9.50;99.90
11934;DHT22;6026;48.784;9.198;2022-09-27T07:06:40;9.60;99.90
11934;DHT22;6026;48.784;9.198;2022-09-27T07:09:05;9.50;99.90
11934;DHT22;6026;48.784;9.198;2022-09-27T07:11:33;9.60;99.90
11934;DHT22;6026;48.784;9.198;2022-09-27T07:14:02;9.60;99.90
11934;DHT22;6026;48.784;9.198;2022-09-27T07:16:29;9.60;99.90
11934;DHT22;6026;48.784;9.198;2022-09-27T07:18:56;9.60;99.90
11934;DHT22;6026;48.784;9.198;2022-09-27T07:21:22;9.60;99.90
11934;DHT22;6026;48.784;9.198;2022-09-27T07:23:48;9.60;99.90
11934;DHT22;6026;48.784;9.198;2022-09-27T07:26:14;9.60;99.90
11934;DHT22;6026;48.784;9.198;2022-09-27T07:28:40;9.70;99.90
11934;DHT22;6026;48.784;9.198;2022-09-27T07:31:06;9.70;99.90
11934;DHT22;6026;48.784;9.198;2022-09-27T07:33:33;9.80;99.90
11934;DHT22;6026;48.784;9.198;2022-09-27T07:35:59;9.90;99.90
11934;DHT22;6026;48.784;9.198;2022-09-27T07:38:24;9.80;99.90
11934;DHT22;6026;48.784;9.198;2022-09-27T07:40:50;9.80;99.90
11934;DHT22;6026;48.784;9.198;2022-09-27T07:43:16;9.70;99.90
11934;DHT22;6026;48.784;9.198;2022-09-27T07:45:42;9.70;99.90
11934;DHT22;6026;48.784;9.198;2022-09-27T07:48:11;9.70;99.90
11934;DHT22;6026;48.784;9.198;2022-09-27T07:50:37;9.60;99.90
11934;DHT22;6026;48.784;9.198;2022-09-27T07:53:03;9.70;99.90
11934;DHT22;6026;48.784;9.198;2022-09-27T07:55:29;9.80;99.90
11934;DHT22;6026;48.784;9.198;2022-09-27T07:58:06;9.80;99.90
11934;DHT22;6026;48.784;9.198;2022-09-27T08:00:33;10.00;99.90
11934;DHT22;6026;48.784;9.198;2022-09-27T08:03:06;10.50;99.90
11934;DHT22;6026;48.784;9.198;2022-09-27T08:05:34;10.90;99.90
11934;DHT22;6026;48.784;9.198;2022-09-27T08:08:00;11.30;99.90
11934;DHT22;6026;48.784;9.198;2022-09-27T08:10:28;11.50;99.90
11934;DHT22;6026;48.784;9.198;2022-09-27T08:12:57;11.80;99.90
11934;DHT22;6026;48.784;9.198;2022-09-27T08:15:22;11.50;99.90
11934;DHT22;6026;48.784;9.198;2022-09-27T08:17:48;11.50;99.90
11934;DHT22;6026;48.784;9.198;2022-09-27T08:20:15;11.20;99.90
11934;DHT22;6026;48.784;9.198;2022-09-27T08:22:41;11.00;99.90
11934;DHT22;6026;48.784;9.198;2022-09-27T08:25:08;11.00;99.90
11934;DHT22;6026;48.784;9.198;2022-09-27T08:27:36;11.10;99.90
11934;DHT22;6026;48.784;9.198;2022-09-27T08:30:02;11.50;99.90
11934;DHT22;6026;48.784;9.198;2022-09-27T08:32:28;11.80;99.90
11934;DHT22;6026;48.784;9.198;2022-09-27T08:38:17;13.20;99.90
11934;DHT22;6026;48.784;9.198;2022-09-27T08:48:24;13.20;99.90
11934;DHT22;6026;48.784;9.198;2022-09-27T08:50:51;12.90;99.90
11934;DHT22;6026;48.784;9.198;2022-09-27T08:53:22;12.70;99.90
11934;DHT22;6026;48.784;9.198;2022-09-27T08:55:54;12.40;99.90
11934;DHT22;6026;48.784;9.198;2022-09-27T09:00:54;12.30;99.90
11934;DHT22;6026;48.784;9.198;2022-09-27T09:03:23;12.20;99.90
11934;DHT22;6026;48.784;9.198;2022-09-27T09:08:31;11.90;99.90
11934;DHT22;6026;48.784;9.198;2022-09-27T09:14:18;11.20;99.90
11934;DHT22;6026;48.784;9.198;2022-09-27T09:22:31;11.10;99.90
11934;DHT22;6026;48.784;9.198;2022-09-27T09:25:22;11.20;99.90
11934;DHT22;6026;48.784;9.198;2022-09-27T09:28:10;11.50;99.90
11934;DHT22;6026;48.784;9.198;2022-09-27T09:35:59;12.20;99.90
11934;DHT22;6026;48.784;9.198;2022-09-27T09:44:05;12.30;99.90
11934;DHT22;6026;48.784;9.198;2022-09-27T09:46:38;12.30;99.90
11934;DHT22;6026;48.784;9.198;2022-09-27T09:49:45;12.30;99.90
11934;DHT22;6026;48.784;9.198;2022-09-27T09:52:16;13.10;99.90
11934;DHT22;6026;48.784;9.198;2022-09-27T09:54:51;13.90;99.90
11934;DHT22;6026;48.784;9.198;2022-09-27T09:57:26;14.50;99.90
11934;DHT22;6026;48.784;9.198;2022-09-27T10:00:04;15.00;99.90
11934;DHT22;6026;48.784;9.198;2022-09-27T10:04:59;14.90;99.90
11934;DHT22;6026;48.784;9.198;2022-09-27T10:07:25;14.80;99.90
11934;DHT22;6026;48.784;9.198;2022-09-27T10:09:55;14.40;99.90
11934;DHT22;6026;48.784;9.198;2022-09-27T10:12:23;14.30;99.90
11934;DHT22;6026;48.784;9.198;2022-09-27T10:14:49;14.10;99.90
11934;DHT22;6026;48.784;9.198;2022-09-27T10:17:20;14.20;99.90
11934;DHT22;6026;48.784;9.198;2022-09-27T10:19:48;14.30;99.90
11934;DHT22;6026;48.784;9.198;2022-09-27T10:22:27;14.40;99.90
11934;DHT22;6026;48.784;9.198;2022-09-27T10:25:00;14.10;99.90
11934;DHT22;6026;48.784;9.198;2022-09-27T10:27:38;13.70;99.90
11934;DHT22;6026;48.784;9.198;2022-09-27T10:30:05;13.70;99.90
11934;DHT22;6026;48.784;9.198;2022-09-27T10:32:33;13.40;99.90
11934;DHT22;6026;48.784;9.198;2022-09-27T10:40:43;12.60;99.90
11934;DHT22;6026;48.784;9.198;2022-09-27T10:43:32;12.40;99.90
11934;DHT22;6026;48.784;9.198;2022-09-27T10:48:30;12.50;99.90
11934;DHT22;6026;48.784;9.198;2022-09-27T10:50:58;12.60;99.90
11934;DHT22;6026;48.784;9.198;2022-09-27T10:53:25;12.80;99.90
11934;DHT22;6026;48.784;9.198;2022-09-27T10:55:52;13.00;99.90
11934;DHT22;6026;48.784;9.198;2022-09-27T10:58:32;13.10;99.90
11934;DHT22;6026;48.784;9.198;2022-09-27T11:01:01;13.20;99.90
11934;DHT22;6026;48.784;9.198;2022-09-27T11:03:52;13.10;99.90
11934;DHT22;6026;48.784;9.198;2022-09-27T11:08:49;13.10;99.90
11934;DHT22;6026;48.784;9.198;2022-09-27T11:11:19;13.10;99.90
11934;DHT22;6026;48.784;9.198;2022-09-27T11:14:19;13.00;99.90
11934;DHT22;6026;48.784;9.198;2022-09-27T11:19:42;12.90;99.90
11934;DHT22;6026;48.784;9.198;2022-09-27T11:22:16;12.90;99.90
11934;DHT22;6026;48.784;9.198;2022-09-27T11:25:03;12.90;99.90
11934;DHT22;6026;48.784;9.198;2022-09-27T11:27:52;12.90;99.90
11934;DHT22;6026;48.784;9.198;2022-09-27T11:30:22;12.90;99.90
11934;DHT22;6026;48.784;9.198;2022-09-27T11:38:24;12.80;99.90
11934;DHT22;6026;48.784;9.198;2022-09-27T11:48:37;12.80;99.90
11934;DHT22;6026;48.784;9.198;2022-09-27T11:51:15;12.70;99.90
11934;DHT22;6026;48.784;9.198;2022-09-27T11:56:40;12.80;99.90
11934;DHT22;6026;48.784;9.198;2022-09-27T12:08:20;12.60;99.90
11934;DHT22;6026;48.784;9.198;2022-09-27T12:11:00;12.30;99.90
11934;DHT22;6026;48.784;9.198;2022-09-27T12:13:35;12.00;99.90
11934;DHT22;6026;48.784;9.198;2022-09-27T12:16:03;11.70;99.90
11934;DHT22;6026;48.784;9.198;2022-09-27T12:18:32;11.50;99.90
11934;DHT22;6026;48.784;9.198;2022-09-27T12:21:01;11.10;99.90
11934;DHT22;6026;48.784;9.198;2022-09-27T12:29:01;10.40;99.90
11934;DHT22;6026;48.784;9.198;2022-09-27T12:31:35;10.20;99.90
11934;DHT22;6026;48.784;9.198;2022-09-27T12:36:50;9.90;99.90
11934;DHT22;6026;48.784;9.198;2022-09-27T12:42:12;9.80;99.90
11934;DHT22;6026;48.784;9.198;2022-09-27T12:44:40;9.80;99.90
11934;DHT22;6026;48.784;9.198;2022-09-27T12:47:16;9.70;99.90
11934;DHT22;6026;48.784;9.198;2022-09-27T12:49:58;9.80;99.90
11934;DHT22;6026;48.784;9.198;2022-09-27T12:52:28;9.80;99.90
11934;DHT22;6026;48.784;9.198;2022-09-27T13:00:57;10.10;99.90
11934;DHT22;6026;48.784;9.198;2022-09-27T13:06:36;10.60;99.90
11934;DHT22;6026;48.784;9.198;2022-09-27T13:12:25;11.80;99.90
11934;DHT22;6026;48.784;9.198;2022-09-27T13:15:20;12.10;99.90
11934;DHT22;6026;48.784;9.198;2022-09-27T13:17:48;12.20;99.90
11934;DHT22;6026;48.784;9.198;2022-09-27T13:23:00;12.10;99.90
11934;DHT22;6026;48.784;9.198;2022-09-27T13:25:51;12.00;99.90
11934;DHT22;6026;48.784;9.198;2022-09-27T13:31:06;11.90;99.90
11934;DHT22;6026;48.784;9.198;2022-09-27T13:33:48;11.70;99.90
11934;DHT22;6026;48.784;9.198;2022-09-27T13:46:45;10.70;99.90
11934;DHT22;6026;48.784;9.198;2022-09-27T13:49:27;10.50;99.90
11934;DHT22;6026;48.784;9.198;2022-09-27T13:57:42;10.40;99.90
11934;DHT22;6026;48.784;9.198;2022-09-27T14:05:48;10.30;99.90
11934;DHT22;6026;48.784;9.198;2022-09-27T14:08:50;10.30;99.90
11934;DHT22;6026;48.784;9.198;2022-09-27T14:11:25;10.20;99.90
11934;DHT22;6026;48.784;9.198;2022-09-27T14:13:52;10.00;99.90
11934;DHT22;6026;48.784;9.198;2022-09-27T14:16:18;9.90;99.90
11934;DHT22;6026;48.784;9.198;2022-09-27T14:18:52;9.90;99.90
11934;DHT22;6026;48.784;9.198;2022-09-27T14:21:31;9.60;99.90
11934;DHT22;6026;48.784;9.198;2022-09-27T14:26:51;9.30;99.90
11934;DHT22;6026;48.784;9.198;2022-09-27T14:29:31;9.30;99.90
11934;DHT22;6026;48.784;9.198;2022-09-27T14:32:11;9.20;99.90
11934;DHT22;6026;48.784;9.198;2022-09-27T14:34:38;9.20;99.90
11934;DHT22;6026;48.784;9.198;2022-09-27T14:37:04;9.10;99.90
11934;DHT22;6026;48.784;9.198;2022-09-27T14:40:01;9.20;99.90
11934;DHT22;6026;48.784;9.198;2022-09-27T14:42:32;9.20;99.90
11934;DHT22;6026;48.784;9.198;2022-09-27T14:47:50;9.30;99.90
11934;DHT22;6026;48.784;9.198;2022-09-27T14:50:28;9.50;99.90
11934;DHT22;6026;48.784;9.198;2022-09-27T14:52:57;9.50;99.90
11934;DHT22;6026;48.784;9.198;2022-09-27T14:55:27;9.60;99.90
11934;DHT22;6026;48.784;9.198;2022-09-27T14:57:58;9.60;99.90
11934;DHT22;6026;48.784;9.198;2022-09-27T15:00:27;9.60;99.90
11934;DHT22;6026;48.784;9.198;2022-09-27T15:02:58;9.60;99.90
11934;DHT22;6026;48.784;9.198;2022-09-27T15:05:27;9.70;99.90
11934;DHT22;6026;48.784;9.198;2022-09-27T15:07:54;9.90;99.90
11934;DHT22;6026;48.784;9.198;2022-09-27T15:10:24;10.30;99.90
11934;DHT22;6026;48.784;9.198;2022-09-27T15:12:56;10.50;99.90
11934;DHT22;6026;48.784;9.198;2022-09-27T15:15:32;10.50;99.90
11934;DHT22;6026;48.784;9.198;2022-09-27T15:17:59;10.70;99.90
11934;DHT22;6026;48.784;9.198;2022-09-27T15:20:31;10.70;99.90
11934;DHT22;6026;48.784;9.198;2022-09-27T15:22:58;10.70;99.90
11934;DHT22;6026;48.784;9.198;2022-09-27T15:30:38;10.80;99.90
11934;DHT22;6026;48.784;9.198;2022-09-27T15:33:06;10.80;99.90
11934;DHT22;6026;48.784;9.198;2022-09-27T15:35:34;10.80;99.90
11934;DHT22;6026;48.784;9.198;2022-09-27T15:38:23;10.80;99.90
11934;DHT22;6026;48.784;9.198;2022-09-27T15:46:01;10.30;99.90
11934;DHT22;6026;48.784;9.198;2022-09-27T15:48:34;10.20;99.90
11934;DHT22;6026;48.784;9.198;2022-09-27T15:51:02;10.10;99.90
11934;DHT22;6026;48.784;9.198;2022-09-27T15:56:00;9.90;99.90
11934;DHT22;6026;48.784;9.198;2022-09-27T15:58:26;9.90;99.90
11934;DHT22;6026;48.784;9.198;2022-09-27T16:00:59;9.90;99.90
11934;DHT22;6026;48.784;9.198;2022-09-27T16:03:27;9.80;99.90
11934;DHT22;6026;48.784;9.198;2022-09-27T16:05:54;9.80;99.90
11934;DHT22;6026;48.784;9.198;2022-09-27T16:08:21;9.70;99.90
11934;DHT22;6026;48.784;9.198;2022-09-27T16:10:52;9.80;99.90
11934;DHT22;6026;48.784;9.198;2022-09-27T16:13:19;9.70;99.90
11934;DHT22;6026;48.784;9.198;2022-09-27T16:15:45;9.70;99.90
11934;DHT22;6026;48.784;9.198;2022-09-27T16:18:12;9.70;99.90
11934;DHT22;6026;48.784;9.198;2022-09-27T16:20:37;9.70;99.90
11934;DHT22;6026;48.784;9.198;2022-09-27T16:23:04;9.70;99.90
11934;DHT22;6026;48.784;9.198;2022-09-27T16:25:29;9.70;99.90
11934;DHT22;6026;48.784;9.198;2022-09-27T16:27:59;9.70;99.90
11934;DHT22;6026;48.784;9.198;2022-09-27T16:30:26;9.80;99.90
11934;DHT22;6026;48.784;9.198;2022-09-27T16:32:52;9.80;99.90
11934;DHT22;6026;48.784;9.198;2022-09-27T16:35:20;9.80;99.90
11934;DHT22;6026;48.784;9.198;2022-09-27T16:37:45;9.80;99.90
11934;DHT22;6026;48.784;9.198;2022-09-27T16:40:12;9.70;99.90
11934;DHT22;6026;48.784;9.198;2022-09-27T16:42:38;9.80;99.90
11934;DHT22;6026;48.784;9.198;2022-09-27T16:45:06;9.80;99.90
11934;DHT22;6026;48.784;9.198;2022-09-27T16:47:33;9.70;99.90
11934;DHT22;6026;48.784;9.198;2022-09-27T16:49:58;9.70;99.90
11934;DHT22;6026;48.784;9.198;2022-09-27T16:52:42;9.70;99.90
11934;DHT22;6026;48.784;9.198;2022-09-27T16:55:12;9.70;99.90
11934;DHT22;6026;48.784;9.198;2022-09-27T16:57:37;9.70;99.90
11934;DHT22;6026;48.784;9.198;2022-09-27T17:00:04;9.70;99.90
11934;DHT22;6026;48.784;9.198;2022-09-27T17:02:30;9.70;99.90
11934;DHT22;6026;48.784;9.198;2022-09-27T17:04:57;9.70;99.90
11934;DHT22;6026;48.784;9.198;2022-09-27T17:07:22;9.70;99.90
11934;DHT22;6026;48.784;9.198;2022-09-27T17:09:48;9.60;99.90
11934;DHT22;6026;48.784;9.198;2022-09-27T17:12:14;9.60;99.90
11934;DHT22;6026;48.784;9.198;2022-09-27T17:14:40;9.60;99.90
11934;DHT22;6026;48.784;9.198;2022-09-27T17:17:05;9.50;99.90
11934;DHT22;6026;48.784;9.198;2022-09-27T17:19:32;9.50;99.90
11934;DHT22;6026;48.784;9.198;2022-09-27T17:21:58;9.50;99.90
11934;DHT22;6026;48.784;9.198;2022-09-27T17:24:24;9.40;99.90
11934;DHT22;6026;48.784;9.198;2022-09-27T17:26:50;9.50;99.90
11934;DHT22;6026;48.784;9.198;2022-09-27T17:29:17;9.50;99.90
11934;DHT22;6026;48.784;9.198;2022-09-27T17:31:43;9.50;99.90
11934;DHT22;6026;48.784;9.198;2022-09-27T17:34:11;9.40;99.90
11934;DHT22;6026;48.784;9.198;2022-09-27T17:36:39;9.50;99.90
11934;DHT22;6026;48.784;9.198;2022-09-27T17:39:10;9.40;99.90
11934;DHT22;6026;48.784;9.198;2022-09-27T17:41:36;9.50;99.90
11934;DHT22;6026;48.784;9.198;2022-09-27T17:44:03;9.50;99.90
11934;DHT22;6026;48.784;9.198;2022-09-27T17:46:33;9.50;99.90
11934;DHT22;6026;48.784;9.198;2022-09-27T17:49:00;9.40;99.90
11934;DHT22;6026;48.784;9.198;2022-09-27T17:51:49;9.50;99.90
11934;DHT22;6026;48.784;9.198;2022-09-27T17:54:16;9.50;99.90
11934;DHT22;6026;48.784;9.198;2022-09-27T17:56:45;9.50;99.90
11934;DHT22;6026;48.784;9.198;2022-09-27T17:59:11;9.50;99.90
11934;DHT22;6026;48.784;9.198;2022-09-27T18:01:38;9.50;99.90
11934;DHT22;6026;48.784;9.198;2022-09-27T18:04:08;9.50;99.90
11934;DHT22;6026;48.784;9.198;2022-09-27T18:06:40;9.50;99.90
11934;DHT22;6026;48.784;9.198;2022-09-27T18:09:07;9.50;99.90
11934;DHT22;6026;48.784;9.198;2022-09-27T18:11:35;9.40;99.90
11934;DHT22;6026;48.784;9.198;2022-09-27T18:14:01;9.40;99.90
11934;DHT22;6026;48.784;9.198;2022-09-27T18:16:29;9.30;99.90
11934;DHT22;6026;48.784;9.198;2022-09-27T18:19:00;9.20;99.90
11934;DHT22;6026;48.784;9.198;2022-09-27T18:21:27;9.20;99.90
11934;DHT22;6026;48.784;9.198;2022-09-27T18:23:54;9.20;99.90
11934;DHT22;6026;48.784;9.198;2022-09-27T18:26:21;9.20;99.90
11934;DHT22;6026;48.784;9.198;2022-09-27T18:28:49;9.20;99.90
11934;DHT22;6026;48.784;9.198;2022-09-27T18:31:17;9.20;99.90
11934;DHT22;6026;48.784;9.198;2022-09-27T18:33:43;9.10;99.90
11934;DHT22;6026;48.784;9.198;2022-09-27T18:36:23;9.10;99.90
11934;DHT22;6026;48.784;9.198;2022-09-27T18:38:57;9.10;99.90
11934;DHT22;6026;48.784;9.198;2022-09-27T18:41:25;9.00;99.90
11934;DHT22;6026;48.784;9.198;2022-09-27T18:43:53;9.00;99.90
11934;DHT22;6026;48.784;9.198;2022-09-27T18:46:23;9.00;99.90
11934;DHT22;6026;48.784;9.198;2022-09-27T18:48:49;9.00;99.90
11934;DHT22;6026;48.784;9.198;2022-09-27T18:51:25;9.00;99.90
11934;DHT22;6026;48.784;9.198;2022-09-27T18:54:02;9.00;99.90
11934;DHT22;6026;48.784;9.198;2022-09-27T18:56:29;8.90;99.90
11934;DHT22;6026;48.784;9.198;2022-09-27T18:58:55;8.80;99.90
11934;DHT22;6026;48.784;9.198;2022-09-27T19:01:22;8.90;99.90
11934;DHT22;6026;48.784;9.198;2022-09-27T19:03:49;8.80;99.90
11934;DHT22;6026;48.784;9.198;2022-09-27T19:06:18;8.80;99.90
11934;DHT22;6026;48.784;9.198;2022-09-27T19:08:44;8.80;99.90
11934;DHT22;6026;48.784;9.198;2022-09-27T19:11:13;8.70;99.90
11934;DHT22;6026;48.784;9.198;2022-09-27T19:13:40;8.70;99.90
11934;DHT22;6026;48.784;9.198;2022-09-27T19:16:06;8.60;99.90
11934;DHT22;6026;48.784;9.198;2022-09-27T19:18:32;8.60;99.90
11934;DHT22;6026;48.784;9.198;2022-09-27T19:21:08;8.60;99.90
11934;DHT22;6026;48.784;9.198;2022-09-27T19:23:35;8.60;99.90